Oakland County International Airport Pontiac US
ICAO: KPTK
IATA: PTK
Category: Medium
Scheduled Services: No

Elevation: 980 ft
TransAlt. 18000 ft.

Airport Communications:
DETROIT APP/DEP:127.5
ATIS:125.45
CLNC DEL:118.25
CTAF:120.5
GND:121.9
LANSING RDO:111
PONTIAC TWR:120.5
UNICOM:122.95

KPTK Zoom In..

If you have problems with the map follow the link
https://www.worldairports.se/pages/airport.php?
ICAO=KPTK

Runways:

(A) RW 09L length 5676 ft width 100 ft
---- / hdg 92

(B) RW 09R length 6521 ft width 150 ft
ILS 111.10 / hdg 92

(C) RW 18 length 2582 ft width 75 ft
---- / hdg 176

(D) RW 27L length 6521 ft width 150 ft
---- / hdg 272

(E) RW 27R length 5676 ft width 100 ft
---- / hdg 272

(F) RW 36 length 2582 ft width 75 ft
---- / hdg 356

Location; KPTK
Day. 26 / Time. 01.59 Zulu
* Altimeter: 29.76
* Temperature: 01° c. 33.8°f.
* Wind from: 240° Speed 04 kn.
Dewpoint: -01° c.
Visibility: 3 Statute Miles.
Clouds: Overcast 900 ft.
Conditions: Light Snow.Conditions: Mist.

KPTK 260159Z 24004KT 3SM -SN BR OVC009 01/M01 A2976 RMK AO2 P0000 T00061006 $


Wind From 240°
Speed 04 kn.

 
 
jpsmedia worldairports.se 2020   terms of use